Weather observations for the past three days for
Iowa Falls Municipal Airport
Metric (Imperial)
Date Time (cdt) Wind (kph) Vis. (km) Weather Sky Cond. Temperature (ºC) Relative Humidity Wind Chill (°C) Heat Index (°C) Pressure Precipitation (cm)
Air Dwpt 6 hour altimeter (cm) sea level (mb) 1 hr 3 hr 6 hr
Max. Min.
06 07:35 W 7 16.09 Fair CLR 4.4 -3 59% 3 76.3 0.0
06 07:15 W 7 16.09 Fair CLR 3.3 -2.7 65% 2 76.28 0.0
06 06:55 W 7 16.09 Fair CLR 1.7 -3 4.6 0.6 71% -0 76.25 0.0
06 06:35 W 9 16.09 Fair CLR 0.7 -3.2 75% -2 76.23 0.0
06 06:15 W 6 16.09 Fair CLR 1.1 -3.1 74% 76.2 0.0
06 05:55 NW 9 16.09 Fair CLR 1.5 -3.3 71% -1 76.2 0.0
06 05:35 NW 7 16.09 Fair CLR 2 -3.3 68% 0 76.17 0.0
06 05:15 NW 7 16.09 Fair CLR 2.3 -3.1 68% 0 76.17 0.0
06 04:55 NW 7 16.09 Fair CLR 2.6 -3.3 65% 1 76.17 0.0
06 04:35 NW 7 16.09 Fair CLR 2.5 -3.6 64% 1 76.17 0.0
06 04:15 NW 9 16.09 Fair CLR 2.7 -3.5 64% 0 76.17 0.0
06 03:55 N 9 16.09 Fair CLR 3.5 -4 58% 1 76.12 0.0
06 03:35 NW 9 16.09 Fair CLR 3.5 -3.7 60% 1 76.12 0.0
06 03:15 NW 9 16.09 Fair CLR 4.5 -4 54% 3 76.12 0.0
06 02:55 N 11 16.09 Fair CLR 4.2 -4.1 55% 2 76.12 0.0
06 02:35 N 11 16.09 Fair CLR 4 -4.2 56% 2 76.12 0.0
06 02:15 N 13 16.09 Fair CLR 3.8 -4.3 56% 1 76.12 0.0
06 01:55 NW 11 16.09 Fair CLR 2.8 -4 61% 0 76.12 0.0
06 01:35 NW 9 16.09 Fair CLR 2.7 -3.8 63% 0 76.1 0.0
06 01:15 NW 9 16.09 Fair CLR 3.8 -4.6 55% 2 76.1 0.0
06 00:55 NW 7 16.09 Fair CLR 4.6 -4.7 12.8 4.6 51% 3 76.07 0.0
06 00:35 NW 11 16.09 Fair CLR 6 -5 46% 4 76.07 0.0
06 00:15 NW 13 16.09 Fair CLR 6.7 -4.7 44% 4 76.05 0.0
05 23:55 N 11 16.09 Fair CLR 6.7 -4.6 45% 5 76.02 0.0
05 23:35 NW 13 16.09 Fair CLR 7 -4.5 44% 5 76.02 0.0
05 23:15 NW 13 16.09 Fair CLR 5.8 -4.7 47% 3 76.02 0.0
05 22:55 NW 9 16.09 Fair CLR 5 -4.5 51% 3 76 0.0
05 22:35 NW 9 16.09 Fair CLR 5.5 -4.3 50% 4 76 0.0
05 22:15 NW 11 16.09 Fair CLR 5.5 -4.4 49% 3 76 0.0
05 21:55 NW 9 16.09 Fair CLR 6 -4 49% 4 76 0.0
05 21:35 NW 9 16.09 Fair CLR 6.9 -5.2 42% 5 75.97 0.0
05 21:15 NW 9 16.09 Fair CLR 8.5 -5.8 36% 7 75.95 0.0
05 20:55 NW 11 16.09 Fair CLR 9.4 -5.6 35% 8 75.92 0.0
05 20:35 NW 11 16.09 Fair CLR 9.7 -5.5 34% 8 75.92 0.0
05 20:15 NW 15 16.09 Fair CLR 10.6 -6.2 30% 75.9 0.0
05 19:55 NW 26 G 31 16.09 Fair CLR 11.1 -6.2 29% 75.87 0.0
05 19:35 NW 24 16.09 Fair CLR 11.7 -5.9 29% 75.84 0.0
05 19:15 NW 24 16.09 Partly Cloudy SCT080 12.5 -6 27% 75.84 0.0
05 18:55 NW 20 G 26 16.09 Partly Cloudy SCT080 12.2 -5.9 15.2 12.2 28% 75.84 0.0
05 18:35 NW 28 16.09 Partly Cloudy SCT080 12.6 -5.3 29% 75.82 0.0
05 18:15 NW 22 16.09 Partly Cloudy SCT080 12.7 -5.5 28% 75.82 0.0
05 17:55 NW 30 16.09 Partly Cloudy SCT080 13.3 -5.1 28% 75.79 0.0
05 17:35 NW 26 G 39 16.09 Mostly Cloudy BKN080 13.4 -5.6 26% 75.79 0.0
05 17:15 N 24 G 30 16.09 Partly Cloudy SCT080 13.3 -5.8 26% 75.79 0.0
05 16:55 W 28 G 39 16.09 Fair CLR 13.9 -5.9 25% 75.79 0.0
05 16:35 W 28 G 41 16.09 Partly Cloudy SCT080 14.4 -5.5 25% 75.82 0.0
05 16:15 NW 26 G 31 16.09 Partly Cloudy SCT080 14.6 -5.6 24% 75.82 0.0
05 15:55 NW 30 G 43 16.09 Partly Cloudy SCT080 14.4 -5.5 25% 75.82 0.0
05 15:35 W 30 G 41 16.09 Partly Cloudy SCT080 14.2 -5.5 25% 75.82 0.0
05 15:15 W 26 G 43 16.09 Partly Cloudy SCT080 14.6 -5.4 25% 75.82 0.0
05 14:55 W 31 G 43 16.09 Partly Cloudy SCT080 14.9 -4.6 26% 75.84 0.0
05 14:35 W 35 G 48 16.09 Partly Cloudy and Breezy SCT080 14.8 -4.7 26% 75.84 0.0
05 14:15 W 26 G 44 16.09 Partly Cloudy SCT080 14.9 -4.7 26% 75.84 0.0
05 13:55 W 31 G 43 16.09 Mostly Cloudy BKN080 15.1 -4.2 26% 75.84 0.0
05 13:35 W 24 G 31 16.09 Mostly Cloudy BKN080 14.2 -4.5 27% 75.84 0.0
05 13:15 NW 24 G 33 16.09 Mostly Cloudy BKN070 14.5 -3.3 29% 75.84 0.0
05 12:55 W 17 G 37 16.09 Mostly Cloudy BKN070 13.2 -4.1 14 5.4 30% 75.87 0.0
05 12:35 W 24 G 37 16.09 Mostly Cloudy BKN070 13.7 -3.4 31% 75.87 0.0
05 12:15 W 15 G 28 16.09 Mostly Cloudy BKN070 13.3 -4.1 30% 75.87 0.0
05 11:55 NW 19 G 35 16.09 Partly Cloudy SCT070 13.5 -3.9 30% 75.87 0.0
05 11:35 W 19 G 30 16.09 Partly Cloudy SCT060 12.8 -3.7 32% 75.9 0.0
05 11:15 NW 24 G 30 16.09 Partly Cloudy SCT060 12.1 -3.6 34% 75.9 0.0
05 10:55 NW 20 G 31 16.09 Mostly Cloudy SCT060 BKN070 12.5 -2.8 35% 75.9 0.0
05 10:35 NW 15 16.09 Mostly Cloudy BKN060 11.9 -2.7 36% 75.9 0.0
05 10:15 NW 9 G 17 16.09 Partly Cloudy SCT060 11.6 -2.8 37% 75.92 0.0
05 09:55 NW 11 G 26 16.09 Fair CLR 11.1 -2.9 38% 75.9 0.0
05 09:35 W 9 16.09 Fair CLR 10.6 -2.5 40% 75.87 0.0
05 09:15 N 11 16.09 Fair CLR 10.1 -2.9 40% 75.87 0.0
05 08:55 NW 7 16.09 Fair CLR 10 -3.4 39% 9 75.84 0.0
05 08:35 Calm 16.09 Fair CLR 9.6 -2.7 42% 75.84 0.0
05 08:15 W 6 16.09 Fair CLR 9 -2.4 45% 75.84 0.0
05 07:55 W 7 16.09 Fair CLR 8.1 -1.6 51% 7 75.87 0.0
05 07:35 W 9 16.09 Fair CLR 7.9 -1.6 51% 7 75.87 0.0
05 07:15 W 7 16.09 Fair CLR 6.5 -0.7 60% 5 75.87 0.0
05 06:55 SW 7 16.09 Fair CLR 5.3 -0.6 9.5 4.2 66% 4 75.84 0.0
05 06:35 SW 9 16.09 Fair CLR 4.3 -1 69% 2 75.79 0.0
05 06:15 W 7 16.09 Fair CLR 4.7 -1 67% 3 75.79 0.0
05 05:55 W 9 16.09 Fair CLR 4.9 -1 66% 3 75.79 0.0
05 05:35 W 9 16.09 Fair CLR 4.3 -0.7 70% 2 75.74 0.0
05 05:15 W 6 16.09 Fair CLR 5 -0.9 66% 75.74 0.0
05 04:55 Calm 16.09 Fair CLR 5.2 -1.8 61% 75.72 0.0
05 04:35 Calm 16.09 Fair CLR 5.1 -1.5 63% 75.69 0.0
05 04:15 NW 9 16.09 Fair CLR 5.1 -1.2 64% 3 75.67 0.0
05 03:55 W 9 16.09 Fair CLR 5 -1.4 64% 3 75.67 0.0
05 03:35 W 7 16.09 Fair CLR 5.5 -1.7 60% 4 75.62 0.0
05 03:15 W 7 16.09 Fair CLR 6 -1.7 58% 5 75.62 0.0
05 02:55 W 7 16.09 Fair CLR 7 -1.7 54% 6 75.64 0.0
05 02:35 Calm 16.09 Fair CLR 7.5 -2.4 50% 75.67 0.0
05 02:15 NW 7 16.09 Fair CLR 7.7 -3.1 47% 7 75.67 0.0
05 01:55 N 13 16.09 Fair CLR 8.1 -2.9 46% 6 75.64 0.0
05 01:35 N 9 16.09 Fair CLR 8.7 -3.1 44% 7 75.64 0.0
05 01:15 NW 17 16.09 Fair CLR 9.1 -3.3 42% 7 75.67 0.0
05 00:55 N 15 G 28 16.09 Fair CLR 9.5 -3.5 17.2 9.5 40% 8 75.64 0.0
05 00:35 N 19 16.09 Partly Cloudy SCT120 10 -3.4 39% 8 75.62 0.0
05 00:15 NW 24 16.09 Fair CLR 10.4 -3.8 37% 75.62 0.0
04 23:55 NW 26 16.09 Fair CLR 10.6 -3.2 38% 75.59 0.0
04 23:35 NW 24 16.09 Fair CLR 11 -3.2 37% 75.59 0.0
04 23:15 NW 28 G 37 16.09 Fair CLR 11.2 -3.1 37% 75.57 0.0
04 22:55 NW 24 G 37 16.09 Fair CLR 11.5 -2.5 38% 75.57 0.0
04 22:35 NW 31 G 41 16.09 Partly Cloudy SCT110 11.8 -2.2 38% 75.57 0.0
04 22:15 NW 31 G 48 16.09 Mostly Cloudy BKN110 12.2 -2.2 37% 75.59 0.0
04 21:55 NW 30 16.09 Overcast OVC110 12.6 -1.9 37% 75.57 0.0
04 21:35 NW 37 G 44 16.09 Partly Cloudy and Breezy SCT120 13 -2 36% 75.54 0.0
04 21:15 NW 35 G 50 16.09 Partly Cloudy and Breezy SCT120 13.5 -1.9 35% 75.49 0.0
04 20:55 NW 30 16.09 Partly Cloudy SCT075 SCT080 SCT100 14 -1.3 35% 75.44 0.0
04 20:35 NW 30 16.09 Mostly Cloudy BKN110 14.2 -0.3 37% 75.41 0.0
04 20:15 NW 26 G 31 16.09 Partly Cloudy SCT100 SCT120 14.3 -0.2 37% 75.39 0.0
04 19:55 NW 35 G 50 16.09 Partly Cloudy and Breezy SCT120 15.3 -1.6 32% 75.36 0.0
04 19:35 NW 37 G 48 16.09 Mostly Cloudy and Breezy BKN120 15.5 -1.3 32% 75.34 0.0
04 19:15 NW 44 G 50 16.09 Partly Cloudy and Windy SCT120 16.7 -2.6 27% 75.31 0.0
04 18:55 NW 44 G 52 16.09 Partly Cloudy and Windy SCT120 17.4 -2.9 26.2 17.4 25% 75.31 0.0
04 18:35 NW 46 G 56 16.09 Fair and Windy CLR 19.2 -2.8 22% 75.31 0.0
04 18:15 NW 41 G 54 16.09 Fair and Breezy CLR 20.2 -2.1 22% 75.26 0.0
04 17:55 NW 41 G 54 16.09 Fair and Breezy CLR 20.7 -0.6 24% 75.23 0.0
04 17:35 NW 41 G 57 16.09 Fair and Breezy CLR 21.6 -0.3 23% 75.21 0.0
04 17:15 NW 37 G 50 16.09 Fair and Breezy CLR 22.1 -0.9 22% 75.18 0.0
04 16:55 NW 37 G 48 16.09 Fair and Breezy CLR 22.4 -0.2 22% 75.16 0.0
04 16:35 NW 37 G 56 16.09 Fair and Breezy CLR 22.8 0 22% 75.16 0.0
04 16:15 NW 33 G 48 16.09 Fair and Breezy CLR 23.2 -0.1 21% 75.13 0.0
04 15:55 NW 35 G 54 16.09 Fair and Breezy CLR 23.6 0 21% 75.11 0.0
04 15:35 NW 37 G 44 16.09 Fair and Breezy CLR 24.3 0.5 21% 25 75.11 0.0
04 15:15 NW 35 G 48 16.09 Fair and Breezy CLR 24.4 0.6 21% 25 75.11 0.0
04 14:55 NW 33 G 52 16.09 Fair and Breezy CLR 24.5 1.6 22% 25 75.11 0.0
04 14:35 NW 35 G 54 16.09 Fair and Breezy CLR 24.7 2.9 24% 25 75.08 0.0
04 14:15 NW 35 G 50 16.09 Fair and Breezy CLR 25.4 4.6 26% 25 75.06 0.0
04 13:55 NW 39 G 48 16.09 Fair and Breezy CLR 25.3 5.2 27% 25 75.03 0.0
04 13:35 NW 39 G 50 16.09 Fair and Breezy CLR 25.5 4.9 27% 25 75.03 0.0
04 13:15 NW 31 G 50 16.09 Fair CLR 25.9 5 26% 26 75.01 0.0
04 12:55 W 31 G 41 16.09 Fair CLR 25.9 4.5 25.9 12.1 25% 26 75.01 0.0
04 12:35 W 39 G 46 16.09 Fair and Breezy CLR 25.6 4.2 25% 25 75.03 0.0
04 12:15 W 33 G 48 16.09 Fair and Breezy CLR 25.4 3.6 24% 25 75.03 0.0
04 11:55 W 46 G 59 16.09 Fair and Windy CLR 25.1 3.4 25% 25 75.03 0.0
04 11:35 W 41 G 57 16.09 Fair and Breezy CLR 24.7 3.3 25% 25 75.03 0.0
04 11:15 W 35 G 46 16.09 Fair and Breezy CLR 24.4 3.1 25% 25 75.03 0.0
04 10:55 SW 37 G 52 16.09 Fair and Breezy CLR 24 2.7 25% 25 75.03 0.0
04 10:35 SW 33 G 41 16.09 Fair and Breezy CLR 23.6 3.2 26% 75.06 0.0
04 10:15 SW 33 16.09 Fair and Breezy CLR 22.5 3.6 29% 75.08 0.0
04 09:55 SW 31 16.09 Fair CLR 21.5 3.5 31% 75.08 0.0
04 09:35 SW 35 16.09 Fair and Breezy CLR 20.8 3.3 32% 75.11 0.0
04 09:15 SW 28 16.09 Fair CLR 20 3 33% 75.11 0.0
04 08:55 SW 31 16.09 Partly Cloudy SCT110 19.6 3.4 34% 75.11 0.0
04 08:35 SW 28 16.09 Partly Cloudy SCT110 18.5 3.7 38% 75.11 0.0
04 08:15 S 19 16.09 Fair CLR 16.6 4.3 44% 75.13 0.0
04 07:55 S 22 16.09 Fair CLR 15.5 4.1 47% 75.13 0.0
04 07:35 S 20 16.09 Fair CLR 14.2 3.8 50% 75.13 0.0
04 07:15 S 19 16.09 Fair CLR 13.2 3.6 52% 75.13 0.0
04 06:55 SW 17 16.09 Fair CLR 12 3.2 12 9.6 55% 75.16 0.0
04 06:35 SW 17 16.09 Fair CLR 11.4 2.7 55% 75.16 0.0
04 06:15 S 17 16.09 Fair CLR 11.1 2.5 56% 75.16 0.0
04 05:55 S 19 16.09 Fair CLR 10.7 2.1 56% 75.18 0.0
04 05:35 SW 15 16.09 Fair CLR 10.9 2 55% 75.21 0.0
04 05:15 SW 15 16.09 Fair CLR 10.4 2 56% 75.21 0.0
04 04:55 S 17 16.09 Fair CLR 11 1.8 53% 75.21 0.0
04 04:35 S 15 16.09 Fair CLR 11.3 1.7 52% 75.23 0.0
04 04:15 S 17 16.09 Fair CLR 11.2 1.6 52% 75.26 0.0
04 03:55 SW 19 16.09 Fair CLR 11.1 1.6 52% 75.26 0.0
04 03:35 S 19 16.09 Fair CLR 11.3 1.5 51% 75.26 0.0
04 03:15 SW 11 16.09 Fair CLR 9.6 1.8 59% 8 75.29 0.0
04 02:55 SW 19 16.09 Fair CLR 9.7 1.9 59% 7 75.31 0.0
04 02:35 SW 15 16.09 Fair CLR 10 1.8 57% 8 75.34 0.0
04 02:15 SW 17 16.09 Fair CLR 10.2 1.7 56% 75.36 0.0
04 01:55 SW 17 16.09 Fair CLR 10.4 1.5 54% 75.36 0.0
04 01:15 SW 17 16.09 Fair CLR 11.2 1.2 50% 75.41 0.0
04 00:55 SW 17 16.09 Fair CLR 10.7 1.5 22.1 10.5 53% 75.44 0.0
04 00:35 SW 15 16.09 Fair CLR 12.5 0.5 44% 75.44 0.0
04 00:15 SW 13 16.09 Fair CLR 12.7 0.4 43% 75.46 0.0
03 23:55 SW 17 16.09 Fair CLR 11 1.3 52% 75.49 0.0
03 23:35 SW 15 16.09 Fair CLR 12.6 0.9 45% 75.49 0.0
03 23:15 SW 15 16.09 Fair CLR 12.6 0.6 44% 75.51 0.0
03 22:55 SW 9 16.09 Fair CLR 12.5 0.8 45% 75.54 0.0
03 22:35 SW 7 16.09 Fair CLR 12.8 1.2 45% 75.54 0.0
03 22:15 SW 9 16.09 Fair CLR 13 1.1 45% 75.57 0.0
03 21:55 SW 11 16.09 Fair CLR 12.7 0.9 45% 75.57 0.0
03 21:35 W 6 16.09 Fair CLR 13.6 0.5 41% 75.57 0.0
03 21:15 W 7 16.09 Fair CLR 14.6 0.1 37% 75.57 0.0
03 20:55 W 9 16.09 Fair CLR 15.1 -0.2 35% 75.57 0.0
03 20:35 W 11 16.09 Fair CLR 16.2 -0.2 33% 75.57 0.0
03 20:15 W 13 16.09 Fair CLR 17.5 0 31% 75.54 0.0
03 19:55 W 13 16.09 Fair CLR 19.1 0.1 28% 75.54 0.0
03 19:35 NW 15 16.09 Fair CLR 20.2 -0.1 26% 75.54 0.0
03 19:15 NW 19 16.09 Fair CLR 21.2 -0.9 23% 75.54 0.0
03 18:55 W 24 16.09 Fair CLR 22.2 -2 23.8 22 20% 75.54 0.0
03 18:35 W 24 16.09 Fair CLR 22.2 -1.8 20% 75.54 0.0
03 18:15 NW 30 G 41 16.09 Fair CLR 22.8 -2.8 18% 75.54 0.0
03 17:55 NW 24 G 33 16.09 Fair CLR 22.8 -1.9 19% 75.54 0.0
03 17:35 NW 24 G 33 16.09 Fair CLR 23.1 -1.1 20% 75.57 0.0
03 17:15 W 24 G 31 16.09 Fair CLR 23 -0.7 21% 75.57 0.0
03 16:55 W 31 G 39 16.09 Fair CLR 23.1 0 22% 75.57 0.0
03 16:35 NW 30 G 41 16.09 Fair CLR 23.5 0.1 21% 75.57 0.0
03 16:15 NW 31 G 43 16.09 Fair CLR 23.6 -0.5 20% 75.57 0.0
03 15:55 NW 26 G 46 16.09 Fair CLR 23.6 -0.7 20% 75.57 0.0
03 15:35 NW 28 G 35 16.09 Fair CLR 23.8 -1.3 19% 75.57 0.0
03 15:15 NW 37 G 43 16.09 Fair and Breezy CLR 23.5 -1.6 19% 75.59 0.0
03 14:55 NW 37 G 44 16.09 Fair and Breezy CLR 23.4 -1.6 19% 75.59 0.0
03 14:35 NW 31 G 44 16.09 Fair CLR 23.4 -0.4 21% 75.59 0.0
03 14:15 NW 33 G 46 16.09 Fair and Breezy CLR 23 -0.1 22% 75.59 0.0
03 13:55 NW 37 G 46 16.09 Fair and Breezy CLR 23 0.2 22% 75.62 0.0
03 13:35 NW 33 G 43 16.09 Fair and Breezy CLR 22.7 1.2 24% 75.59 0.0
03 13:15 NW 35 G 48 16.09 Fair and Breezy CLR 22.4 0.7 24% 75.62 0.0
03 12:55 NW 37 G 48 16.09 Fair and Breezy CLR 22.2 1.6 22.2 10.9 26% 75.62 0.0
03 12:35 NW 37 G 54 16.09 Fair and Breezy CLR 22 1.4 26% 75.62 0.0
03 12:15 NW 37 G 50 16.09 Fair and Breezy CLR 22 1.9 27% 75.62 0.0
03 11:55 NW 37 G 50 16.09 Fair and Breezy CLR 21.4 1.8 27% 75.62 0.0
03 11:35 NW 33 G 46 16.09 Fair and Breezy CLR 20.7 2.9 31% 75.62 0.0
03 11:15 NW 31 16.09 Fair CLR 19.7 2.4 32% 75.62 0.0
03 10:55 NW 26 G 41 16.09 Fair CLR 19.3 2.8 34% 75.62 0.0
03 10:35 W 30 G 39 16.09 Fair CLR 18.5 2.7 35% 75.62 0.0
03 10:15 W 26 G 31 16.09 Fair CLR 17.5 2.6 37% 75.62 0.0
03 09:55 W 28 16.09 Fair CLR 16.7 2.8 40% 75.64 0.0
03 09:35 W 30 16.09 Fair CLR 15.9 2.2 40% 75.64 0.0
03 09:15 SW 31 16.09 Fair CLR 15.1 1.9 41% 75.62 0.0
03 08:55 W 31 G 37 16.09 Fair CLR 14.4 2.1 44% 75.64 0.0
03 08:35 SW 30 G 37 16.09 Fair CLR 13.4 1.7 45% 75.64 0.0
03 08:15 SW 33 16.09 Fair and Breezy CLR 12.7 1.5 47% 75.64 0.0
03 07:55 SW 28 16.09 Fair CLR 11.6 1.2 49% 75.64 0.0
Date Time (cdt) Wind (kph) Vis. (km) Weather Sky Cond. Air Dwpt Max. Min. Relative Humidity Wind Chill (°C) Heat Index (°C) altimeter (cm) sea level (mb) 1 hr 3 hr 6 hr
6 hour
Temperature (ºC) Pressure Precipitation (cm)